Terminal Aerodrome Forecast
Issued by NWS Tuscon, AZ

Home | Current Version | Previous Version | Text Only | Print | Product List | Glossary On
Versions: 1 2 3 4 5 6 7 8 9 10 11 12 13 14 15 16 17 18 19 20 21 22 23 24 25
000
FTUS45 KTWC 011300 AAA
TAFDUG
TAF AMD
KDUG 011348Z 0114/0212 VRB03KT 6SM BR SCT010 BKN040
     FM011600 34008KT P6SM SCT050
     FM020200 02004KT P6SM SKC=

USA.gov is the U.S. government's official web portal to all federal, state and local government web resources and services.